Flight Track Log - Related Links

Times and Time Zones

All times are in EDT time to prevent confusion due to time zone crossing. See the UPS110 flight status page for this flight to view local times or setup timezone preferences in your user account.

Time Position Orientation Groundspeed Altitude Reporting Facility
EDT Latitude Longitude Course Direction KTS MPH feet Rate Location/Type
Sun 11:06:32 AM 61.1930 -150.0040 165° South  Level FlightAware ADS-B
Sun 11:10:00 AM 61.2035 -150.5693 276° West  Level FlightAware Approximate
Sun 11:18:17 AM 61.1800 -150.0040 342° North 135 155  Level FlightAware ADS-B
Sun 11:18:44 AM 61.2010 -150.0160 345° North 170 196 1,600 3,600 Climbing FlightAware ADS-B
Sun 11:18:52 AM 61.2060 -150.0220 330° Northwest 167 192 2,100 3,500 Climbing FlightAware ADS-B
Sun 11:19:08 AM 61.2170 -150.0370 327° Northwest 168 193 3,000 3,600 Climbing FlightAware ADS-B
Sun 11:19:12 AM 61.2190 -150.0420 310° West 169 194 3,300 3,500 Climbing FlightAware ADS-B
Sun 11:19:20 AM 61.2220 -150.0530 300° West 170 196 3,700 2,727 Climbing FlightAware ADS-B
Sun 11:19:34 AM 61.2260 -150.0740 292° West 177 204 4,300 2,063 Climbing FlightAware ADS-B
Sun 11:19:52 AM 61.2260 -150.1070 270° West 201 231 4,800 1,714 Climbing FlightAware ADS-B
Sun 11:20:16 AM 61.2280 -150.1560 275° West 231 266 5,500 1,957 Climbing FlightAware ADS-B
Sun 11:20:38 AM 61.2300 -150.2070 275° West 251 289 6,300 1,857 Climbing FlightAware ADS-B
Sun 11:20:58 AM 61.2320 -150.2560 275° West 274 315 6,800 2,100 Climbing FlightAware ADS-B
Sun 11:21:18 AM 61.2340 -150.3120 274° West 282 325 7,700 2,550 Climbing FlightAware ADS-B
Sun 11:21:38 AM 61.2360 -150.3660 274° West 289 333 8,500 2,591 Climbing FlightAware ADS-B
Sun 11:22:02 AM 61.2380 -150.4320 274° West 294 338 9,600 2,690 Climbing FlightAware ADS-B
Sun 11:22:36 AM 61.2410 -150.5310 274° West 300 345 11,100 2,143 Climbing FlightAware ADS-B
Sun 11:23:12 AM 61.2450 -150.6410 274° West 342 394 12,100 1,676 Climbing FlightAware ADS-B
Sun 11:23:44 AM 61.2490 -150.7520 274° West 378 435 13,000 2,273 Climbing FlightAware ADS-B
Sun 11:24:18 AM 61.2530 -150.8770 274° West 394 453 14,600 2,914 Climbing FlightAware ADS-B
Sun 11:24:54 AM 61.2570 -151.0150 274° West 406 467 16,400 2,877 Climbing FlightAware ADS-B
Sun 11:25:31 AM 61.2610 -151.1510 274° West 415 478 18,100 2,750 Climbing FlightAware ADS-B
Sun 11:26:06 AM 61.2650 -151.3020 273° West 426 490 19,700 2,687 Climbing FlightAware ADS-B
Sun 11:26:38 AM 61.2690 -151.4340 274° West 435 501 21,100 2,571 Climbing FlightAware ADS-B
Sun 11:27:16 AM 61.2730 -151.5970 273° West 444 511 22,700 2,351 Climbing FlightAware ADS-B
Sun 11:27:52 AM 61.2770 -151.7510 273° West 453 521 24,000 2,174 Climbing FlightAware ADS-B
Sun 11:28:25 AM 61.2810 -151.8930 273° West 461 531 25,200 2,000 Climbing FlightAware ADS-B
Sun 11:28:58 AM 61.2840 -152.0410 272° West 470 541 26,200 1,859 Climbing FlightAware ADS-B
Sun 11:29:36 AM 61.2850 -152.2040 271° West 479 551 27,400 2,027 Climbing FlightAware ADS-B
Sun 11:30:12 AM 61.2850 -152.3780 270° West 482 555 28,700 2,294 Climbing FlightAware ADS-B
Sun 11:30:44 AM 61.2850 -152.5280 270° West 477 549 30,000 2,486 Climbing FlightAware ADS-B
Sun 11:31:22 AM 61.2860 -152.6990 271° West 469 540 31,600 2,333 Climbing FlightAware ADS-B
Sun 11:31:56 AM 61.2860 -152.8520 270° West 465 535 32,800 1,971 Climbing FlightAware ADS-B
Sun 11:32:32 AM 61.2860 -153.0110 270° West 461 531 33,900 1,846 Climbing FlightAware ADS-B
Sun 11:33:14 AM 61.2860 -153.1950 270° West 454 522 35,200 1,231 Climbing FlightAware ADS-B
Sun 11:33:50 AM 61.2850 -153.3560 269° West 467 537 35,500 706 Climbing FlightAware ADS-B
Sun 11:34:22 AM 61.2850 -153.4960 270° West 470 541 36,000 441 Climbing FlightAware ADS-B
Sun 11:34:58 AM 61.2840 -153.6610 269° West 468 539 36,000  Level FlightAware ADS-B
Sun 11:35:31 AM 61.2830 -153.8050 269° West 464 534 36,000  Level FlightAware ADS-B
Sun 11:36:08 AM 61.2820 -153.9690 269° West 464 534 36,000  Level FlightAware ADS-B
Sun 11:36:44 AM 61.2800 -154.1330 269° West 464 534 36,000  Level FlightAware ADS-B
Sun 11:37:16 AM 61.2790 -154.2730 269° West 463 533 36,000  Level FlightAware ADS-B
Sun 11:37:53 AM 61.2770 -154.4360 269° West 462 532 36,000  Level FlightAware ADS-B
Sun 11:38:29 AM 61.2750 -154.5960 269° West 461 531 36,000  Level FlightAware ADS-B
Sun 11:39:05 AM 61.2730 -154.7530 269° West 459 528 36,000  Level FlightAware ADS-B
Sun 11:39:33 AM 61.2710 -154.8790 268° West 458 527 36,000  Level FlightAware ADS-B
Sun 11:40:30 AM 61.2680 -155.1070 269° West 456 525 36,000  Level FlightAware ADS-B
Sun 11:41:10 AM 61.2640 -155.2720 267° West 456 525 36,000  Level FlightAware ADS-B
Sun 11:41:46 AM 61.2600 -155.4060 267° West 456 525 36,000  Level FlightAware ADS-B
Sun 11:42:23 AM 61.2570 -155.5440 267° West 456 525 36,000  Level FlightAware ADS-B
Sun 11:43:00 AM 61.2530 -155.6820 267° West 456 525 36,000  Level FlightAware ADS-B
Sun 11:43:36 AM 61.2500 -155.8160 267° West 456 525 36,000  Level FlightAware ADS-B
Sun 11:44:12 AM 61.2460 -155.9500 267° West 456 525 36,000  Level FlightAware ADS-B
Sun 11:44:49 AM 61.2430 -156.0880 267° West 456 525 36,000  Level FlightAware ADS-B
Sun 11:45:25 AM 61.2400 -156.2220 267° West 456 525 36,000  Level FlightAware ADS-B
Sun 11:46:01 AM 61.2360 -156.3560 267° West 456 525 36,000  Level FlightAware ADS-B
Sun 11:46:37 AM 61.2330 -156.4900 267° West 456 525 36,000  Level FlightAware ADS-B
Sun 11:47:13 AM 61.2290 -156.6240 267° West 456 525 36,000  Level FlightAware ADS-B
Sun 11:47:50 AM 61.2260 -156.7610 267° West 456 525 36,000  Level FlightAware ADS-B
Sun 11:48:26 AM 61.2220 -156.8950 267° West 456 525 36,000  Level FlightAware ADS-B
Sun 11:49:02 AM 61.2190 -157.0290 267° West 456 525 36,000  Level FlightAware ADS-B
Sun 11:49:39 AM 61.2160 -157.1670 267° West 456 525 36,000  Level FlightAware ADS-B
Sun 11:50:16 AM 61.2120 -157.3040 267° West 456 525 36,000  Level FlightAware ADS-B
Sun 11:50:55 AM 61.2500 -157.8167 267° West 450 518 36,000  Level Anchorage Center
Sun 11:51:29 AM 61.2333 -157.9667 257° West 460 529 36,000  Level Anchorage Center
Sun 11:52:29 AM 61.2333 -158.2333 270° West 450 518 36,000  Level Anchorage Center
Sun 11:53:29 AM 61.2333 -158.5000 270° West 450 518 36,000  Level Anchorage Center
Sun 11:54:29 AM 61.2333 -158.7500 270° West 450 518 36,000  Level Anchorage Center
Sun 11:55:29 AM 61.2333 -159.0167 270° West 460 529 36,000  Level Anchorage Center
Sun 11:56:29 AM 61.2333 -159.2833 270° West 460 529 36,000  Level Anchorage Center
Sun 11:57:29 AM 61.2167 -159.5500 263° West 460 529 36,000  Level Anchorage Center
Sun 11:58:30 AM 61.2167 -159.8167 270° West 450 518 36,000  Level Anchorage Center
Sun 11:59:29 AM 61.2167 -160.0833 270° West 450 518 36,000  Level Anchorage Center
Sun 12:00:29 PM 61.2000 -160.3500 263° West 460 529 36,000  Level Anchorage Center
Sun 12:01:30 PM 61.2000 -160.6167 270° West 450 518 36,000  Level Anchorage Center
Sun 12:02:30 PM 61.1833 -160.8833 263° West 450 518 36,000  Level Anchorage Center
Sun 12:03:30 PM 61.1833 -161.1500 270° West 460 529 36,000  Level Anchorage Center
Sun 12:04:30 PM 61.1667 -161.4167 263° West 450 518 36,000  Level Anchorage Center
Sun 12:05:30 PM 61.1667 -161.6833 270° West 450 518 36,000  Level Anchorage Center
Sun 12:06:30 PM 61.1500 -161.9333 262° West 460 529 36,000  Level Anchorage Center
Sun 12:07:30 PM 61.1500 -162.2000 270° West 460 529 36,000  Level Anchorage Center
Sun 12:08:30 PM 61.1333 -162.4667 263° West 450 518 36,000  Level Anchorage Center
Sun 12:09:31 PM 61.1167 -162.7333 263° West 450 518 36,000  Level Anchorage Center
Sun 12:10:31 PM 61.1000 -162.9833 262° West 450 518 36,000  Level Anchorage Center
Sun 12:11:31 PM 61.0833 -163.2500 263° West 460 529 36,000  Level Anchorage Center
Sun 12:12:31 PM 61.0333 -163.5167 249° West 470 541 36,000  Level Anchorage Center
Sun 12:13:31 PM 61.0000 -163.7667 255° West 470 541 36,000  Level Anchorage Center
Sun 12:14:31 PM 60.9667 -164.0333 256° West 470 541 36,000  Level Anchorage Center
Sun 12:15:31 PM 60.9167 -164.3000 249° West 470 541 36,000  Level Anchorage Center
Sun 12:16:32 PM 60.8833 -164.5500 255° West 470 541 36,000  Level Anchorage Center
Sun 12:17:31 PM 60.8500 -164.8000 255° West 460 529 36,000  Level Anchorage Center
Sun 12:18:31 PM 60.8000 -165.0500 248° West 460 529 36,000  Level Anchorage Center
Sun 12:19:32 PM 60.7667 -165.3167 256° West 460 529 36,000  Level Anchorage Center
Sun 12:20:32 PM 60.7167 -165.5667 248° West 460 529 36,000  Level Anchorage Center
Sun 12:21:32 PM 60.6833 -165.8167 255° West 460 529 36,000  Level Anchorage Center
Sun 12:22:32 PM 60.6500 -166.0667 255° West 460 529 36,000  Level Anchorage Center
Sun 12:23:32 PM 60.6167 -166.2667 251° West 460 529 36,000  Level Anchorage Center
Sun 12:24:32 PM 60.5667 -166.5167 248° West 460 529 36,000  Level Anchorage Center
Sun 12:25:57 PM 60.5000 -166.9000 251° West 460 529 36,000  Level Anchorage Center
Sun 12:26:57 PM 60.4667 -167.1000 251° West 460 529 36,000  Level Anchorage Center
Sun 12:27:57 PM 60.4167 -167.3500 248° West 460 529 36,000  Level Anchorage Center
Sun 12:28:57 PM 60.3833 -167.6000 255° West 460 529 36,000  Level Anchorage Center
Sun 12:29:57 PM 60.3333 -167.8333 247° West 450 518 36,000  Level Anchorage Center
Sun 12:30:58 PM 60.2833 -168.0833 248° West 450 518 36,000  Level Anchorage Center
Sun 12:31:58 PM 60.2500 -168.3167 254° West 450 518 36,000  Level Anchorage Center
Sun 12:32:58 PM 60.2000 -168.5500 247° West 450 518 36,000  Level Anchorage Center
Sun 12:33:57 PM 60.1667 -168.7833 254° West 450 518 36,000  Level Anchorage Center
Sun 12:34:58 PM 60.1167 -169.0333 248° West 450 518 36,000  Level Anchorage Center
Sun 12:35:57 PM 60.0667 -169.2500 245° Southwest 450 518 36,000  Level Anchorage Center
Sun 12:36:58 PM 60.0167 -169.5000 248° West 450 518 36,000  Level Anchorage Center
Sun 12:37:57 PM 59.9833 -169.7333 254° West 450 518 36,000  Level Anchorage Center
Sun 12:38:58 PM 59.9333 -169.9667 247° West 450 518 36,000  Level Anchorage Center
Sun 12:39:58 PM 59.8833 -170.2000 247° West 440 506 36,000  Level Anchorage Center
Sun 12:40:58 PM 59.8333 -170.4333 247° West 450 518 36,000  Level Anchorage Center
Sun 12:41:58 PM 59.8000 -170.6667 254° West 450 518 36,000  Level Anchorage Center
Sun 12:42:58 PM 59.7500 -170.8833 245° Southwest 440 506 36,000  Level Anchorage Center
Sun 12:43:58 PM 59.7000 -171.1333 248° West 460 529 36,000  Level Anchorage Center
Sun 12:44:58 PM 59.6500 -171.3500 246° West 440 506 36,000  Level Anchorage Center
Sun 12:45:58 PM 59.6000 -171.5667 246° West 440 506 36,000  Level Anchorage Center
Sun 12:46:58 PM 59.5500 -171.8000 247° West 440 506 36,000  Level Anchorage Center
Sun 12:47:58 PM 59.5000 -172.0333 247° West 440 506 36,000  Level Anchorage Center
Sun 12:48:58 PM 59.4500 -172.2500 246° West 450 518 36,000  Level Anchorage Center
Sun 12:49:59 PM 59.4167 -172.4667 253° West 420 483 36,000  Level Anchorage Center
Sun 12:50:58 PM 59.3667 -172.7000 247° West 440 506 36,000  Level Anchorage Center
Sun 12:51:58 PM 59.3167 -172.9167 246° West 440 506 36,000  Level Anchorage Center
Sun 12:52:59 PM 59.2667 -173.1500 247° West 430 495 36,000  Level Anchorage Center
Sun 12:53:59 PM 59.2333 -173.3667 253° West 440 506 36,000 250 Level Anchorage Center
Sun 12:54:59 PM 59.1833 -173.5833 246° West 440 506 36,500 1,000 Climbing Anchorage Center
Sun 12:55:59 PM 59.1333 -173.8167 247° West 440 506 38,000 750 Climbing Anchorage Center
Sun 12:56:59 PM 59.0833 -174.0333 246° West 440 506 38,000  Level Anchorage Center
Sun 12:57:59 PM 59.0333 -174.2500 246° West 440 506 38,000  Level Anchorage Center
Sun 12:58:59 PM 58.9833 -174.4667 246° West 440 506 38,000  Level Anchorage Center
Sun 12:59:59 PM 58.9333 -174.6833 246° West 430 495 38,000  Level Anchorage Center
Sun 01:00:59 PM 58.9000 -174.9000 253° West 430 495 38,000  Level Anchorage Center
Sun 01:01:59 PM 58.8500 -175.1167 246° West 430 495 38,000  Level Anchorage Center
Sun 01:02:59 PM 58.8000 -175.3167 244° Southwest 430 495 38,000  Level Anchorage Center
Sun 01:03:59 PM 58.7500 -175.5333 246° West 440 506 38,000  Level Anchorage Center
Sun 01:04:59 PM 58.7000 -175.7500 246° West 430 495 38,000  Level Anchorage Center
Sun 01:06:00 PM 58.6500 -175.9667 246° West 430 495 38,000  Level Anchorage Center
Sun 01:07:00 PM 58.6000 -176.1667 244° Southwest 440 506 38,000  Level Anchorage Center
Sun 01:08:00 PM 58.5500 -176.3833 246° West 430 495 38,000  Level Anchorage Center
Sun 01:09:00 PM 58.5000 -176.6000 246° West 440 506 38,000  Level Anchorage Center
Sun 01:10:00 PM 58.4333 -176.8000 238° Southwest 440 506 38,000  Level Anchorage Center
Sun 01:13:00 PM 58.3851 -177.0177 247° West  Level FlightAware Approximate
Sun 01:18:41 PM 58.0000 -178.5833 244° Southwest 443 510 38,000  Level Anchorage Center
Sun 01:20:00 PM 58.0153 -178.5055 245° Southwest  Level FlightAware Approximate
Sun 01:21:00 PM 57.9609 -178.7154 244° Southwest  Level FlightAware Approximate
Sun 01:22:00 PM 57.9062 -178.9246 244° Southwest  Level FlightAware Approximate
Sun 01:23:00 PM 57.8511 -179.1331 244° Southwest  Level FlightAware Approximate
Sun 01:24:00 PM 57.7957 -179.3411 244° Southwest  Level FlightAware Approximate
Sun 01:25:00 PM 57.5900 179.9145 242° Southwest 443 510 38,000  Level FlightAware Transoceanic
Sun 01:26:00 PM 57.5300 179.7027 242° Southwest 443 510 38,000  Level FlightAware Transoceanic
Sun 01:27:00 PM 57.4697 179.4916 242° Southwest 443 510 38,000  Level FlightAware Transoceanic
Sun 01:28:00 PM 57.4090 179.2812 242° Southwest 443 510 38,000  Level FlightAware Transoceanic
Sun 01:28:11 PM 57.4667 179.4667 242° Southwest 448 516 38,000  Level Anchorage Center
Sun 01:29:00 PM 57.3479 179.0715 242° Southwest 443 510 38,000  Level FlightAware Transoceanic
Sun 01:30:00 PM 57.2865 178.8625 241° Southwest 443 510 38,000  Level FlightAware Transoceanic
Sun 01:31:00 PM 57.2247 178.6542 241° Southwest 443 510 38,000  Level FlightAware Transoceanic
Sun 01:32:00 PM 57.1626 178.4466 241° Southwest 443 510 38,000  Level FlightAware Transoceanic
Sun 01:33:00 PM 57.1002 178.2397 241° Southwest 443 510 38,000  Level FlightAware Transoceanic
Sun 01:34:00 PM 57.0873 178.1856 241° Southwest 448 516 38,000  Level FlightAware Transoceanic
Sun 01:35:00 PM 57.0228 177.9746 241° Southwest 448 516 38,000  Level FlightAware Transoceanic
Sun 01:36:00 PM 56.9580 177.7644 240° Southwest 448 516 38,000  Level FlightAware Transoceanic
Sun 01:37:00 PM 56.8928 177.5549 240° Southwest 448 516 38,000  Level FlightAware Transoceanic
Sun 01:37:44 PM 56.8667 177.4500 240° Southwest 476 548 38,000  Level Anchorage Center
Sun 01:38:00 PM 56.8273 177.3462 240° Southwest 448 516 38,000  Level FlightAware Transoceanic
Sun 01:38:19 PM 56.8333 177.3500 240° Southwest 492 566 38,000  Level Anchorage Center
Sun 01:39:00 PM 56.7614 177.1382 240° Southwest 448 516 38,000  Level FlightAware Transoceanic
Sun 01:40:00 PM 56.6952 176.9309 240° Southwest 448 516 38,000  Level FlightAware Transoceanic
Sun 01:41:00 PM 56.6286 176.7243 240° Southwest 448 516 38,000  Level FlightAware Transoceanic
Sun 01:42:00 PM 56.5617 176.5185 239° Southwest 448 516 38,000  Level FlightAware Transoceanic
Sun 01:43:00 PM 56.4944 176.3134 239° Southwest 448 516 38,000  Level FlightAware Transoceanic
Sun 01:44:00 PM 56.4159 176.0647 239° Southwest 492 566 38,000  Level FlightAware Transoceanic
Sun 01:45:00 PM 56.3451 175.8532 239° Southwest 492 566 38,000  Level FlightAware Transoceanic
Sun 01:46:00 PM 56.2738 175.6425 239° Southwest 492 566 38,000  Level FlightAware Transoceanic
Sun 01:46:47 PM 56.2000 175.5000 238° Southwest 480 552 38,000  Level Anchorage Center
Sun 01:47:00 PM 56.2023 175.4327 238° Southwest 492 566 38,000  Level FlightAware Transoceanic
Sun 01:47:47 PM 56.1500 175.2833 248° West 510 587 38,000  Level Anchorage Center
Sun 01:48:00 PM 56.1304 175.2236 238° Southwest 492 566 38,000  Level FlightAware Transoceanic
Sun 01:48:47 PM 56.0667 175.0667 235° Southwest 500 575 38,000  Level Anchorage Center
Sun 01:49:00 PM 56.0581 175.0152 238° Southwest 492 566 38,000  Level FlightAware Transoceanic
Sun 01:49:47 PM 56.0000 174.8833 237° Southwest 500 575 38,000  Level Anchorage Center
Sun 01:50:00 PM 55.9855 174.8077 238° Southwest 492 566 38,000  Level FlightAware Transoceanic
Sun 01:50:47 PM 55.9167 174.6500 238° Southwest 500 575 38,000  Level Anchorage Center
Sun 01:51:00 PM 55.9125 174.6009 238° Southwest 492 566 38,000  Level FlightAware Transoceanic
Sun 01:51:48 PM 55.8500 174.4333 241° Southwest 500 575 38,000  Level Anchorage Center
Sun 01:52:00 PM 55.8392 174.3950 238° Southwest 492 566 38,000  Level FlightAware Transoceanic
Sun 01:52:47 PM 55.7833 174.2500 237° Southwest 490 564 38,000  Level Anchorage Center
Sun 01:53:48 PM 55.7000 174.0167 238° Southwest 490 564 38,000  Level Anchorage Center
Sun 01:54:48 PM 55.6333 173.8500 235° Southwest 500 575 38,000  Level Anchorage Center
Sun 01:55:48 PM 55.5500 173.6167 238° Southwest 500 575 38,000  Level Anchorage Center
Sun 01:56:48 PM 55.4833 173.4500 235° Southwest 500 575 38,000  Level Anchorage Center
Sun 01:57:48 PM 55.4000 173.2167 238° Southwest 500 575 38,000  Level Anchorage Center
Sun 01:58:48 PM 55.3333 173.0500 235° Southwest 500 575 38,000  Level Anchorage Center
Sun 01:59:48 PM 55.2500 172.8167 238° Southwest 500 575 38,000  Level Anchorage Center
Sun 02:00:48 PM 55.1667 172.6000 236° Southwest 490 564 38,000  Level Anchorage Center
Sun 02:01:48 PM 55.1000 172.4333 235° Southwest 510 587 38,000  Level Anchorage Center
Sun 02:02:48 PM 55.0167 172.2000 238° Southwest 510 587 38,000  Level Anchorage Center
Sun 02:03:48 PM 54.9500 172.0333 235° Southwest 490 564 38,000  Level Anchorage Center
Sun 02:04:48 PM 54.8500 171.8167 231° Southwest 500 575 38,000  Level Anchorage Center
Sun 02:05:48 PM 54.7833 171.6500 235° Southwest 500 575 38,000  Level Anchorage Center
Sun 02:06:49 PM 54.7000 171.4333 236° Southwest 500 575 38,000  Level Anchorage Center
Sun 02:07:49 PM 54.6167 171.2333 234° Southwest 490 564 38,000  Level Anchorage Center
Sun 02:08:48 PM 54.5333 171.0500 232° Southwest 510 587 38,000  Level Anchorage Center
Sun 02:09:49 PM 54.4500 170.8333 237° Southwest 510 587 38,000  Level Anchorage Center
Sun 02:10:49 PM 54.3833 170.6833 233° Southwest 500 575 38,000  Level Anchorage Center
Sun 02:11:48 PM 54.2833 170.4667 232° Southwest 510 587 38,000  Level Anchorage Center
Sun 02:12:49 PM 54.2167 170.3000 236° Southwest 490 564 38,000  Level Anchorage Center
Sun 02:13:49 PM 54.1333 170.1000 235° Southwest 500 575 38,000  Level Anchorage Center
Sun 02:14:49 PM 54.0333 169.9000 230° Southwest 500 575 38,000  Level Anchorage Center
Sun 02:15:49 PM 53.9667 169.7333 236° Southwest 510 587 38,000  Level Anchorage Center
Sun 02:16:49 PM 53.8833 169.5333 235° Southwest 480 552 38,000  Level Anchorage Center
Sun 02:17:49 PM 53.8167 169.3667 236° Southwest 480 552 38,000  Level Anchorage Center
Sun 02:18:49 PM 53.7167 169.1500 232° Southwest 520 598 38,000  Level Anchorage Center
Sun 02:19:49 PM 53.6500 168.9833 236° Southwest 500 575 38,000  Level Anchorage Center
Sun 02:20:49 PM 53.5833 168.7667 243° Southwest 510 587 38,000  Level Anchorage Center
Sun 02:21:49 PM 53.5167 168.5833 239° Southwest 510 587 38,000  Level Anchorage Center
Sun 02:23:38 PM 53.4167 168.2333 240° Southwest 487 560 38,000  Level Anchorage Center
Sun 02:25:49 PM 53.2500 167.8000 239° Southwest 488 562 38,000  Level Anchorage Center
Sun 02:30:00 PM 52.9405 166.9013 239° Southwest 487 560 38,000  Level FlightAware Transoceanic
Sun 02:31:00 PM 52.8712 166.7134 239° Southwest 487 560 38,000  Level FlightAware Transoceanic
Sun 02:32:00 PM 52.8339 166.6473 239° Southwest 488 562 38,000  Level FlightAware Transoceanic
Sun 02:33:00 PM 52.7635 166.4573 238° Southwest 488 562 38,000  Level FlightAware Transoceanic
Sun 02:34:00 PM 52.6928 166.2680 238° Southwest 488 562 38,000  Level FlightAware Transoceanic
Sun 02:35:00 PM 52.6217 166.0793 238° Southwest 488 562 38,000  Level FlightAware Transoceanic
Sun 02:36:00 PM 52.5504 165.8911 238° Southwest 488 562 38,000  Level FlightAware Transoceanic
Sun 02:36:18 PM 52.5833 165.9500 238° Southwest 481 554 38,000  Level Anchorage Center
Sun 02:37:00 PM 52.4788 165.7036 238° Southwest 488 562 38,000  Level FlightAware Transoceanic
Sun 02:38:00 PM 52.4069 165.5167 238° Southwest 488 562 38,000  Level FlightAware Transoceanic
Sun 02:39:00 PM 52.3347 165.3305 238° Southwest 488 562 38,000  Level FlightAware Transoceanic
Sun 02:40:00 PM 52.2622 165.1448 237° Southwest 488 562 38,000  Level FlightAware Transoceanic
Sun 02:41:00 PM 52.1894 164.9597 237° Southwest 488 562 38,000  Level FlightAware Transoceanic
Sun 02:42:00 PM 52.0968 164.7043 237° Southwest 481 554 38,000  Level FlightAware Transoceanic
Sun 02:43:00 PM 52.0262 164.5286 237° Southwest 481 554 38,000  Level FlightAware Transoceanic
Sun 02:44:00 PM 51.9554 164.3534 237° Southwest 481 554 38,000  Level FlightAware Transoceanic
Sun 02:44:55 PM 51.8833 164.1833 237° Southwest 491 565 38,000  Level Anchorage Center
Sun 02:45:00 PM 51.8843 164.1788 237° Southwest 481 554 38,000  Level FlightAware Transoceanic
Sun 02:46:00 PM 51.8130 164.0048 236° Southwest 481 554 38,000  Level FlightAware Transoceanic
Sun 02:47:00 PM 51.7414 163.8313 236° Southwest 481 554 38,000  Level FlightAware Transoceanic
Sun 02:48:00 PM 51.6695 163.6583 236° Southwest 481 554 38,000  Level FlightAware Transoceanic
Sun 02:48:00 PM 51.6500 163.6500 236° Southwest 490 564 38,000  Level Anchorage Center
Sun 02:49:00 PM 51.5974 163.4859 236° Southwest 481 554 38,000  Level FlightAware Transoceanic
Sun 02:50:00 PM 51.5251 163.3140 236° Southwest 481 554 38,000  Level FlightAware Transoceanic
Sun 02:51:00 PM 51.4361 163.1096 236° Southwest 491 565 38,000  Level FlightAware Transoceanic
Sun 02:52:00 PM 51.3606 162.9327 236° Southwest 491 565 38,000  Level FlightAware Transoceanic
Sun 02:53:00 PM 51.2849 162.7564 235° Southwest 491 565 38,000  Level FlightAware Transoceanic
Sun 02:54:00 PM 51.2006 162.5855 235° Southwest 490 564 38,000  Level FlightAware Transoceanic
Sun 02:54:32 PM 51.1333 162.4333 235° Southwest 494 568 38,000  Level Anchorage Center
Sun 02:55:00 PM 51.1248 162.4101 235° Southwest 490 564 38,000  Level FlightAware Transoceanic
Sun 02:56:00 PM 51.0487 162.2353 235° Southwest 490 564 38,000  Level FlightAware Transoceanic
Sun 02:57:00 PM 50.9724 162.0610 235° Southwest 490 564 38,000  Level FlightAware Transoceanic
Sun 02:58:00 PM 50.8957 161.8874 235° Southwest 490 564 38,000  Level FlightAware Transoceanic
Sun 02:59:00 PM 50.8189 161.7143 235° Southwest 490 564 38,000  Level FlightAware Transoceanic
Sun 03:00:00 PM 50.6948 161.4397 235° Southwest 494 568 38,000  Level FlightAware Transoceanic
Sun 03:01:00 PM 50.6209 161.2758 234° Southwest 494 568 38,000  Level FlightAware Transoceanic
Sun 03:02:00 PM 50.5468 161.1126 234° Southwest 494 568 38,000  Level FlightAware Transoceanic
Sun 03:03:00 PM 50.4725 160.9498 234° Southwest 494 568 38,000  Level FlightAware Transoceanic
Sun 03:04:00 PM 50.3979 160.7875 234° Southwest 494 568 38,000  Level FlightAware Transoceanic
Sun 03:04:09 PM 50.3833 160.7500 234° Southwest 474 545 38,000  Level Anchorage Center
Sun 03:05:00 PM 50.3231 160.6258 234° Southwest 494 568 38,000  Level FlightAware Transoceanic
Sun 03:06:00 PM 50.2480 160.4646 234° Southwest 494 568 38,000  Level FlightAware Transoceanic
Sun 03:06:27 PM 50.2000 160.3833 234° Southwest 475 547 38,000  Level Anchorage Center
Sun 03:07:00 PM 50.1728 160.3038 234° Southwest 494 568 38,000  Level FlightAware Transoceanic
Sun 03:08:00 PM 50.0973 160.1436 234° Southwest 494 568 38,000  Level FlightAware Transoceanic
Sun 03:09:00 PM 50.0216 159.9839 234° Southwest 494 568 38,000  Level FlightAware Transoceanic
Sun 03:10:00 PM 49.9408 159.8123 233° Southwest 474 545 38,000  Level FlightAware Transoceanic
Sun 03:11:00 PM 49.8663 159.6578 233° Southwest 474 545 38,000  Level FlightAware Transoceanic
Sun 03:12:00 PM 49.7167 159.3500 233° Southwest 475 547 38,000  Level FlightAware Transoceanic
Sun 03:13:00 PM 49.6428 159.1993 233° Southwest 475 547 38,000  Level FlightAware Transoceanic
Sun 03:14:00 PM 49.5688 159.0490 233° Southwest 475 547 38,000  Level FlightAware Transoceanic
Sun 03:15:00 PM 49.4946 158.8992 233° Southwest 475 547 38,000  Level FlightAware Transoceanic
Sun 03:16:00 PM 49.4202 158.7499 232° Southwest 475 547 38,000  Level FlightAware Transoceanic
Sun 03:17:00 PM 49.3456 158.6010 232° Southwest 475 547 38,000  Level FlightAware Transoceanic
Sun 03:18:00 PM 49.2709 158.4526 232° Southwest 475 547 38,000  Level FlightAware Transoceanic
Sun 03:19:00 PM 49.1959 158.3046 232° Southwest 475 547 38,000  Level FlightAware Transoceanic
Sun 03:20:00 PM 49.1207 158.1571 232° Southwest 475 547 38,000  Level FlightAware Transoceanic
Sun 03:21:00 PM 49.0454 158.0100 232° Southwest 475 547 38,000  Level FlightAware Transoceanic
Sun 03:22:00 PM 48.9698 157.8633 232° Southwest 475 547 38,000  Level FlightAware Transoceanic
Sun 03:23:00 PM 48.8941 157.7171 232° Southwest 475 547 38,000  Level FlightAware Transoceanic
Sun 03:24:00 PM 48.8182 157.5714 232° Southwest 475 547 38,000  Level FlightAware Transoceanic
Sun 03:25:00 PM 48.7421 157.4261 231° Southwest 475 547 38,000  Level FlightAware Transoceanic
Sun 03:26:00 PM 48.6659 157.2812 231° Southwest 475 547 38,000  Level FlightAware Transoceanic
Sun 03:27:00 PM 48.5894 157.1367 231° Southwest 475 547 38,000  Level FlightAware Transoceanic
Sun 03:28:00 PM 48.5128 156.9927 231° Southwest 475 547 38,000  Level FlightAware Transoceanic
Sun 03:29:00 PM 48.4360 156.8492 231° Southwest 475 547 38,000  Level FlightAware Transoceanic
Sun 03:30:00 PM 48.3590 156.7060 231° Southwest 475 547 38,000  Level FlightAware Transoceanic
Sun 03:31:00 PM 48.2818 156.5633 231° Southwest 475 547 38,000  Level FlightAware Transoceanic
Sun 03:32:00 PM 48.2045 156.4211 231° Southwest 475 547 38,000  Level FlightAware Transoceanic
Sun 03:33:00 PM 48.1270 156.2792 231° Southwest 475 547 38,000  Level FlightAware Transoceanic
Sun 03:34:00 PM 48.0493 156.1378 231° Southwest 475 547 38,000  Level FlightAware Transoceanic
Sun 03:35:00 PM 47.9714 155.9968 230° Southwest 475 547 38,000  Level FlightAware Transoceanic
Sun 03:36:00 PM 47.8934 155.8563 230° Southwest 475 547 38,000  Level FlightAware Transoceanic
Sun 03:37:00 PM 47.8152 155.7162 230° Southwest 475 547 38,000  Level FlightAware Transoceanic
Sun 03:38:00 PM 47.7368 155.5764 230° Southwest 475 547 38,000  Level FlightAware Transoceanic
Sun 03:39:00 PM 47.6583 155.4371 230° Southwest 475 547 38,000  Level FlightAware Transoceanic
Sun 03:40:00 PM 47.5796 155.2983 230° Southwest 475 547 38,000  Level FlightAware Transoceanic
Sun 03:41:00 PM 47.5007 155.1598 230° Southwest 475 547 38,000  Level FlightAware Transoceanic
Sun 03:42:00 PM 47.4216 155.0218 230° Southwest 475 547 38,000  Level FlightAware Transoceanic
Sun 03:43:00 PM 47.3424 154.8841 230° Southwest 475 547 38,000  Level FlightAware Transoceanic
Sun 03:44:00 PM 47.2631 154.7469 229° Southwest 475 547 38,000  Level FlightAware Transoceanic
Sun 03:45:00 PM 47.1835 154.6101 229° Southwest 475 547 38,000  Level FlightAware Transoceanic
Sun 03:46:00 PM 47.1038 154.4737 229° Southwest 475 547 38,000  Level FlightAware Transoceanic
Sun 03:47:00 PM 47.0240 154.3377 229° Southwest 475 547 38,000  Level FlightAware Transoceanic
Sun 03:48:00 PM 46.9439 154.2022 229° Southwest 475 547 38,000  Level FlightAware Transoceanic
Sun 03:49:00 PM 46.8638 154.0670 229° Southwest 475 547 38,000  Level FlightAware Transoceanic
Sun 03:50:00 PM 46.7834 153.9322 229° Southwest 475 547 38,000  Level FlightAware Transoceanic
Sun 03:51:00 PM 46.7029 153.7979 229° Southwest 475 547 38,000  Level FlightAware Transoceanic
Sun 03:52:00 PM 46.6223 153.6639 229° Southwest 475 547 38,000  Level FlightAware Transoceanic
Sun 03:53:00 PM 46.5415 153.5303 229° Southwest 475 547 38,000  Level FlightAware Transoceanic
Sun 03:54:00 PM 46.4605 153.3971 228° Southwest 475 547 38,000  Level FlightAware Transoceanic
Sun 03:55:00 PM 46.3794 153.2644 228° Southwest 475 547 38,000  Level FlightAware Transoceanic
Sun 03:56:00 PM 46.2981 153.1320 228° Southwest 475 547 38,000  Level FlightAware Transoceanic
Sun 03:57:00 PM 46.2152 152.9977 228° Southwest  Level FlightAware Approximate
Sun 03:58:00 PM 46.2138 152.9954 228° Southwest  Level FlightAware Approximate
Sun 03:59:00 PM 46.1302 152.8623 228° Southwest  Level FlightAware Approximate
Sun 04:00:00 PM 46.0465 152.7296 228° Southwest  Level FlightAware Approximate
Sun 04:01:00 PM 45.9626 152.5973 228° Southwest  Level FlightAware Approximate
Sun 04:02:00 PM 45.8785 152.4654 228° Southwest  Level FlightAware Approximate
Sun 04:03:00 PM 45.7943 152.3338 227° Southwest  Level FlightAware Approximate
Sun 04:04:00 PM 45.7100 152.2027 227° Southwest  Level FlightAware Approximate
Sun 04:05:00 PM 45.6255 152.0720 227° Southwest  Level FlightAware Approximate
Sun 04:06:00 PM 45.5408 151.9417 227° Southwest  Level FlightAware Approximate
Sun 04:07:00 PM 45.4560 151.8117 227° Southwest  Level FlightAware Approximate
Sun 04:08:00 PM 45.3711 151.6822 227° Southwest  Level FlightAware Approximate
Sun 04:09:00 PM 45.2860 151.5530 227° Southwest  Level FlightAware Approximate
Sun 04:10:00 PM 45.2008 151.4243 227° Southwest  Level FlightAware Approximate
Sun 04:11:00 PM 45.1154 151.2959 227° Southwest  Level FlightAware Approximate
Sun 04:12:00 PM 45.0299 151.1679 227° Southwest  Level FlightAware Approximate
Sun 04:13:00 PM 44.9442 151.0403 227° Southwest  Level FlightAware Approximate
Sun 04:14:00 PM 44.8584 150.9130 226° Southwest  Level FlightAware Approximate
Sun 04:15:00 PM 44.7725 150.7861 226° Southwest  Level FlightAware Approximate
Sun 04:16:00 PM 44.6864 150.6597 226° Southwest  Level FlightAware Approximate
Sun 04:17:00 PM 44.6002 150.5336 226° Southwest  Level FlightAware Approximate
Sun 04:18:00 PM 44.5134 150.4084 226° Southwest  Level FlightAware Approximate
Sun 04:19:00 PM 44.4264 150.2837 226° Southwest  Level FlightAware Approximate
Sun 04:20:00 PM 44.3393 150.1593 226° Southwest  Level FlightAware Approximate
Sun 04:21:00 PM 44.2521 150.0353 226° Southwest  Level FlightAware Approximate
Sun 04:22:00 PM 44.1648 149.9116 225° Southwest  Level FlightAware Approximate
Sun 04:23:00 PM 44.0773 149.7884 225° Southwest  Level FlightAware Approximate
Sun 04:24:00 PM 43.9906 149.6643 226° Southwest  Level FlightAware Approximate
Sun 04:25:00 PM 43.9041 149.5400 226° Southwest  Level FlightAware Approximate
Sun 04:26:00 PM 43.8175 149.4161 226° Southwest  Level FlightAware Approximate
Sun 04:27:00 PM 43.7307 149.2925 226° Southwest  Level FlightAware Approximate
Sun 04:28:00 PM 43.6438 149.1694 226° Southwest  Level FlightAware Approximate
Sun 04:29:00 PM 43.5568 149.0465 226° Southwest  Level FlightAware Approximate
Sun 04:30:00 PM 43.4694 148.9244 225° Southwest  Level FlightAware Approximate
Sun 04:31:00 PM 43.3813 148.8033 225° Southwest  Level FlightAware Approximate
Sun 04:31:26 PM 43.4310 148.8720 225° Southwest 437 503 38,000  Level FlightAware ADS-B
Sun 04:32:00 PM 43.2931 148.6826 225° Southwest  Level FlightAware Approximate
Sun 04:32:01 PM 43.3800 148.8010 225° Southwest 438 504 38,000  Level FlightAware ADS-B
Sun 04:32:36 PM 43.3330 148.7380 224° Southwest 438 504 38,000  Level FlightAware ADS-B
Sun 04:33:11 PM 43.2800 148.6650 225° Southwest 438 504 38,000  Level FlightAware ADS-B
Sun 04:33:46 PM 43.2300 148.5970 225° Southwest 433 498 38,000  Level FlightAware ADS-B
Sun 04:34:31 PM 43.1660 148.5100 225° Southwest 434 499 38,000  Level FlightAware ADS-B
Sun 04:35:01 PM 43.1250 148.4550 224° Southwest 433 498 38,000  Level FlightAware ADS-B
Sun 04:35:41 PM 43.0640 148.3710 225° Southwest 434 499 38,000  Level FlightAware ADS-B
Sun 04:36:11 PM 43.0240 148.3170 225° Southwest 434 499 38,000  Level FlightAware ADS-B
Sun 04:36:46 PM 42.9730 148.2490 224° Southwest 434 499 38,000  Level FlightAware ADS-B
Sun 04:37:22 PM 42.9200 148.1770 225° Southwest 434 499 38,000  Level FlightAware ADS-B
Sun 04:38:01 PM 42.8620 148.1000 224° Southwest 434 499 38,000  Level FlightAware ADS-B
Sun 04:38:36 PM 42.8110 148.0310 225° Southwest 433 498 38,000  Level FlightAware ADS-B
Sun 04:39:06 PM 42.7680 147.9740 224° Southwest 432 497 38,000  Level FlightAware ADS-B
Sun 04:39:46 PM 42.7110 147.8980 224° Southwest 432 497 38,000  Level FlightAware ADS-B
Sun 04:40:16 PM 42.6690 147.8420 224° Southwest 432 497 38,000  Level FlightAware ADS-B
Sun 04:40:56 PM 42.6090 147.7630 224° Southwest 433 498 38,000  Level FlightAware ADS-B
Sun 04:41:26 PM 42.5660 147.7050 225° Southwest 433 498 38,000  Level FlightAware ADS-B
Sun 04:42:01 PM 42.5140 147.6380 224° Southwest 434 499 38,000  Level FlightAware ADS-B
Sun 04:42:41 PM 42.4570 147.5620 225° Southwest 434 499 38,000  Level FlightAware ADS-B
Sun 04:43:16 PM 42.4050 147.4930 224° Southwest 434 499 38,000  Level FlightAware ADS-B
Sun 04:43:46 PM 42.3610 147.4360 224° Southwest 434 499 38,000  Level FlightAware ADS-B
Sun 04:44:26 PM 42.3030 147.3600 224° Southwest 435 501 38,000  Level FlightAware ADS-B
Sun 04:45:01 PM 42.2520 147.2930 224° Southwest 436 502 38,000  Level FlightAware ADS-B
Sun 04:45:36 PM 42.2000 147.2260 224° Southwest 442 509 38,000  Level FlightAware ADS-B
Sun 04:46:06 PM 42.1560 147.1690 224° Southwest 437 503 38,000  Level FlightAware ADS-B
Sun 04:46:46 PM 42.0970 147.0930 224° Southwest 443 510 38,000  Level FlightAware ADS-B
Sun 04:47:21 PM 42.0450 147.0250 224° Southwest 443 510 38,000  Level FlightAware ADS-B
Sun 04:47:51 PM 42.0010 146.9680 224° Southwest 444 511 38,000  Level FlightAware ADS-B
Sun 04:48:31 PM 41.9410 146.8910 224° Southwest 444 511 38,000  Level FlightAware ADS-B
Sun 04:49:07 PM 41.8880 146.8230 224° Southwest 445 512 38,000  Level FlightAware ADS-B
Sun 04:49:37 PM 41.8440 146.7670 223° Southwest 446 513 38,000  Level FlightAware ADS-B
Sun 04:50:12 PM 41.7920 146.6990 224° Southwest 446 513 38,000  Level FlightAware ADS-B
Sun 04:50:52 PM 41.7320 146.6240 223° Southwest 447 514 38,000  Level FlightAware ADS-B
Sun 04:51:22 PM 41.6870 146.5650 224° Southwest 447 514 38,000  Level FlightAware ADS-B
Sun 04:51:59 PM 41.6350 146.4990 223° Southwest 447 514 38,000  Level FlightAware ADS-B
Sun 04:52:32 PM 41.5830 146.4330 224° Southwest 448 516 38,000  Level FlightAware ADS-B
Sun 04:53:12 PM 41.5220 146.3570 223° Southwest 449 517 38,000  Level FlightAware ADS-B
Sun 04:53:42 PM 41.4770 146.3000 224° Southwest 448 516 38,000  Level FlightAware ADS-B
Sun 04:54:17 PM 41.4240 146.2330 223° Southwest 448 516 38,000  Level FlightAware ADS-B
Sun 04:54:57 PM 41.3660 146.1600 223° Southwest 448 516 38,000  Level FlightAware ADS-B
Sun 04:55:27 PM 41.3190 146.1010 223° Southwest 447 514 38,000  Level FlightAware ADS-B
Sun 04:56:07 PM 41.2600 146.0280 223° Southwest 442 509 38,000  Level FlightAware ADS-B
Sun 04:56:47 PM 41.1990 145.9510 224° Southwest 448 516 38,000  Level FlightAware ADS-B
Sun 04:57:22 PM 41.1450 145.8840 223° Southwest 442 509 38,000  Level FlightAware ADS-B
Sun 04:57:52 PM 41.1000 145.8270 224° Southwest 443 510 38,000  Level FlightAware ADS-B
Sun 04:58:33 PM 41.0400 145.7530 223° Southwest 444 511 38,000  Level FlightAware ADS-B
Sun 04:59:07 PM 40.9860 145.6860 223° Southwest 444 511 38,000  Level FlightAware ADS-B
Sun 04:59:47 PM 40.9250 145.6110 223° Southwest 444 511 38,000  Level FlightAware ADS-B
Sun 05:00:22 PM 40.8720 145.5460 223° Southwest 444 511 38,000  Level FlightAware ADS-B
Sun 05:00:57 PM 40.8190 145.4810 223° Southwest 444 511 38,000  Level FlightAware ADS-B
Sun 05:01:39 PM 40.7560 145.4040 223° Southwest 444 511 38,000  Level FlightAware ADS-B
Sun 05:02:15 PM 40.7010 145.3370 223° Southwest 443 510 38,000  Level FlightAware ADS-B
Sun 05:03:04 PM 40.6300 145.2500 223° Southwest 443 510 38,000  Level FlightAware ADS-B
Sun 05:03:38 PM 40.5740 145.1820 223° Southwest 442 509 38,000  Level FlightAware ADS-B
Sun 05:04:13 PM 40.5320 145.1310 223° Southwest 444 511 38,000  Level FlightAware ADS-B
Sun 05:04:50 PM 40.4850 145.0730 223° Southwest 444 511 38,000  Level FlightAware ADS-B
Sun 05:05:27 PM 40.4370 145.0150 223° Southwest 444 511 38,000  Level FlightAware ADS-B
Sun 05:06:03 PM 40.3910 144.9590 223° Southwest 444 511 38,000  Level FlightAware ADS-B
Sun 05:06:32 PM 40.3100 144.8640 222° Southwest 441 507 38,000  Level FlightAware ADS-B
Sun 05:07:14 PM 40.2580 144.8010 223° Southwest 441 507 38,000  Level FlightAware ADS-B
Sun 05:07:51 PM 40.2110 144.7430 223° Southwest 441 507 38,000  Level FlightAware ADS-B
Sun 05:08:27 PM 40.1650 144.6880 222° Southwest 441 507 38,000  Level FlightAware ADS-B
Sun 05:09:04 PM 40.1180 144.6300 223° Southwest 441 507 38,000  Level FlightAware ADS-B
Sun 05:09:40 PM 40.0730 144.5750 223° Southwest 441 507 38,000  Level FlightAware ADS-B
Sun 05:10:27 PM 39.9580 144.4450 221° Southwest 422 486 38,000  Level FlightAware ADS-B
Sun 05:10:58 PM 39.9150 144.3940 222° Southwest 444 511 38,000  Level FlightAware ADS-B
Sun 05:11:35 PM 39.8670 144.3380 222° Southwest 444 511 38,000  Level FlightAware ADS-B
Sun 05:12:29 PM 39.7750 144.2290 222° Southwest 445 512 38,000  Level FlightAware ADS-B
Sun 05:13:12 PM 39.7000 144.1420 222° Southwest 444 511 38,000  Level FlightAware ADS-B
Sun 05:13:58 PM 39.6390 144.0700 222° Southwest 445 512 38,000  Level FlightAware ADS-B
Sun 05:14:32 PM 39.5820 144.0080 220° Southwest 449 517 38,000  Level FlightAware ADS-B
Sun 05:15:23 PM 39.4990 143.9400 212° Southwest 451 519 38,000  Level FlightAware ADS-B
Sun 05:15:53 PM 39.4250 143.9110 197° South 459 528 38,000  Level FlightAware ADS-B
Sun 05:16:38 PM 39.3350 143.8630 202° Southwest 457 526 38,000  Level FlightAware ADS-B
Sun 05:17:08 PM 39.2740 143.8300 203° Southwest 457 526 38,000  Level FlightAware ADS-B
Sun 05:17:43 PM 39.2130 143.7970 203° Southwest 458 527 38,000  Level FlightAware ADS-B
Sun 05:18:23 PM 39.1320 143.7530 203° Southwest 457 526 38,000  Level FlightAware ADS-B
Sun 05:18:53 PM 39.0710 143.7200 203° Southwest 458 527 38,000  Level FlightAware ADS-B
Sun 05:19:33 PM 38.9940 143.6790 202° Southwest 459 528 38,000  Level FlightAware ADS-B
Sun 05:20:13 PM 38.9140 143.6360 203° Southwest 459 528 38,000  Level FlightAware ADS-B
Sun 05:20:48 PM 38.8530 143.6040 202° Southwest 459 528 38,000  Level FlightAware ADS-B
Sun 05:21:23 PM 38.7760 143.5630 203° Southwest 459 528 38,000  Level FlightAware ADS-B
Sun 05:21:58 PM 38.7070 143.5260 203° Southwest 461 531 38,000  Level FlightAware ADS-B
Sun 05:22:33 PM 38.6370 143.4900 202° Southwest 462 532 38,000  Level FlightAware ADS-B
Sun 05:23:08 PM 38.5680 143.4530 203° Southwest 464 534 38,000  Level FlightAware ADS-B
Sun 05:23:44 PM 38.5000 143.4170 203° Southwest 464 534 38,000  Level FlightAware ADS-B
Sun 05:24:18 PM 38.4300 143.3800 202° Southwest 466 536 38,000  Level FlightAware ADS-B
Sun 05:24:53 PM 38.3620 143.3440 203° Southwest 466 536 38,000  Level FlightAware ADS-B
Sun 05:25:26 PM 38.2970 143.3100 202° Southwest 466 536 38,000  Level FlightAware ADS-B
Sun 05:26:01 PM 38.2240 143.2730 202° Southwest 467 537 38,000  Level FlightAware ADS-B
Sun 05:26:36 PM 38.1550 143.2370 202° Southwest 468 539 38,000  Level FlightAware ADS-B
Sun 05:27:11 PM 38.0840 143.1990 203° Southwest 469 540 38,000  Level FlightAware ADS-B
Sun 05:27:46 PM 38.0140 143.1630 202° Southwest 470 541 38,000  Level FlightAware ADS-B
Sun 05:28:21 PM 37.9450 143.1280 202° Southwest 471 542 38,000  Level FlightAware ADS-B
Sun 05:28:56 PM 37.8730 143.0900 203° Southwest 471 542 38,000  Level FlightAware ADS-B
Sun 05:29:36 PM 37.7920 143.0480 202° Southwest 472 543 38,000  Level FlightAware ADS-B
Sun 05:30:06 PM 37.7300 143.0170 202° Southwest 472 543 38,000  Level FlightAware ADS-B
Sun 05:30:40 PM 37.6620 142.9810 203° Southwest 473 544 38,000  Level FlightAware ADS-B
Sun 05:31:20 PM 37.5820 142.9400 202° Southwest 473 544 38,000  Level FlightAware ADS-B
Sun 05:31:50 PM 37.5240 142.9100 202° Southwest 473 544 38,000  Level FlightAware ADS-B
Sun 05:32:22 PM 37.4570 142.8760 202° Southwest 473 544 38,000  Level FlightAware ADS-B
Sun 05:33:17 PM 37.3460 142.8200 202° Southwest 473 544 38,000  Level FlightAware ADS-B
Sun 05:33:48 PM 37.2840 142.7880 202° Southwest 473 544 38,000  Level FlightAware ADS-B
Sun 05:34:24 PM 37.2130 142.7520 202° Southwest 473 544 38,000  Level FlightAware ADS-B
Sun 05:35:14 PM 37.1120 142.7010 202° Southwest 474 545 38,000  Level FlightAware ADS-B
Sun 05:35:57 PM 37.0380 142.6630 202° Southwest 475 547 38,000  Level FlightAware ADS-B
Sun 05:36:34 PM 36.9740 142.6310 202° Southwest 475 547 38,000  Level FlightAware ADS-B
Sun 05:37:12 PM 36.9080 142.5980 202° Southwest 475 547 38,000  Level FlightAware ADS-B
Sun 05:37:39 PM 36.8190 142.5540 202° Southwest 797 917 38,000 -609 Level FlightAware ADS-B
Sun 05:39:54 PM 36.5410 142.4150 195° South 37,200 -700 Descending FlightAware ADS-B
Sun 05:40:00 PM 36.6703 142.2397 195° South  Level Estimated
Sun 05:40:39 PM 36.4400 142.3640 202° Southwest 480 552 35,900  Level FlightAware ADS-B
Sun 05:41:15 PM 36.3650 142.3270 202° Southwest 472 543 35,000 -1,750 Descending FlightAware ADS-B
Sun 05:41:51 PM 36.2920 142.2910 202° Southwest 475 547 33,800 -1,941 Descending FlightAware ADS-B
Sun 05:42:23 PM 36.2290 142.2600 202° Southwest 473 544 32,800 -2,250 Descending FlightAware ADS-B
Sun 05:42:55 PM 36.1630 142.2270 202° Southwest 470 541 31,400 -2,328 Descending FlightAware ADS-B
Sun 05:43:30 PM 36.0940 142.1930 202° Southwest 485 558 30,200 -2,031 Descending FlightAware ADS-B
Sun 05:44:00 PM 36.0390 142.1470 214° Southwest 469 540 29,200 -2,123 Descending FlightAware ADS-B
Sun 05:44:35 PM 36.0040 142.0670 242° Southwest 469 540 27,900 -2,400 Descending FlightAware ADS-B
Sun 05:44:45 PM 35.9990 142.0380 258° West 455 524 27,400 -2,400 Descending FlightAware ADS-B
Sun 05:45:15 PM 35.9890 141.9620 261° West 445 512 26,300 -3,000 Descending FlightAware ADS-B
Sun 05:46:03 PM 35.9740 141.8380 262° West 454 522 23,500 -2,963 Descending FlightAware ADS-B
Sun 05:46:36 PM 35.9640 141.7550 262° West 441 507 22,300 -2,206 Descending FlightAware ADS-B
Sun 05:47:11 PM 35.9530 141.6690 261° West 427 491 21,000 -2,348 Descending FlightAware ADS-B
Sun 05:47:45 PM 35.9430 141.5880 261° West 420 483 19,600 -2,435 Descending FlightAware ADS-B
Sun 05:48:20 PM 35.9330 141.5060 261° West 411 473 18,200 -2,314 Descending FlightAware ADS-B
Sun 05:48:55 PM 35.9230 141.4260 261° West 404 465 16,900 -2,282 Descending FlightAware ADS-B
Sun 05:49:31 PM 35.9120 141.3450 261° West 396 456 15,500 -2,364 Descending FlightAware ADS-B
Sun 05:50:01 PM 35.9050 141.2780 263° West 390 449 14,300 -2,333 Descending FlightAware ADS-B
Sun 05:50:43 PM 35.9110 141.1870 275° West 378 435 12,700 -2,206 Descending FlightAware ADS-B
Sun 05:51:09 PM 35.9150 141.1310 275° West 372 428 11,800 -1,765 Descending FlightAware ADS-B
Sun 05:51:51 PM 35.9210 141.0440 275° West 349 402 10,700 -1,077 Descending FlightAware ADS-B
Sun 05:52:27 PM 35.9260 140.9780 275° West 313 360 10,400 -529 Descending FlightAware ADS-B
Sun 05:52:59 PM 35.9300 140.9240 275° West 279 321 10,100 -857 Descending FlightAware ADS-B
Sun 05:53:16 PM 35.9330 140.8980 278° West 279 321 9,700 -1,500 Descending FlightAware ADS-B
Sun 05:53:35 PM 35.9350 140.8660 274° West 281 323 9,200 -1,463 Descending FlightAware ADS-B
Sun 05:53:57 PM 35.9380 140.8310 276° West 281 323 8,700 -1,297 Descending FlightAware ADS-B
Sun 05:54:12 PM 35.9400 140.8090 276° West 279 321 8,400 -1,235 Descending FlightAware ADS-B
Sun 05:54:31 PM 35.9420 140.7780 275° West 278 320 8,000 -977 Descending FlightAware ADS-B
Sun 05:54:55 PM 35.9450 140.7400 276° West 280 322 7,700 -818 Descending FlightAware ADS-B
Sun 05:55:15 PM 35.9470 140.7080 274° West 278 320 7,400 -750 Descending FlightAware ADS-B
Sun 05:55:35 PM 35.9480 140.6770 272° West 275 316 7,200 -563 Descending FlightAware ADS-B
Sun 05:55:47 PM 35.9500 140.6580 277° West 274 315 7,100 -333 Descending FlightAware ADS-B
Sun 05:56:11 PM 35.9520 140.6200 274° West 277 319 7,000 -409 Descending FlightAware ADS-B
Sun 05:56:31 PM 35.9540 140.5880 274° West 272 313 6,800 -600 Descending FlightAware ADS-B
Sun 05:56:51 PM 35.9560 140.5570 275° West 270 311 6,600 -600 Descending FlightAware ADS-B
Sun 05:57:11 PM 35.9580 140.5270 275° West 269 310 6,400 -600 Descending FlightAware ADS-B
Sun 05:57:21 PM 35.9590 140.5120 275° West 269 310 6,300 -500 Descending FlightAware ADS-B
Sun 05:57:47 PM 35.9620 140.4720 275° West 270 311 6,100 -652 Descending FlightAware ADS-B
Sun 05:58:07 PM 35.9630 140.4410 272° West 264 304 5,800 -857 Descending FlightAware ADS-B
Sun 05:58:29 PM 35.9650 140.4080 274° West 258 297 5,500 -955 Descending FlightAware ADS-B
Sun 05:58:51 PM 35.9630 140.3770 265° West 250 288 5,100 -1,000 Descending FlightAware ADS-B
Sun 05:59:11 PM 35.9620 140.3490 267° West 232 267 4,800 -833 Descending FlightAware ADS-B
Sun 05:59:27 PM 35.9600 140.3290 263° West 220 253 4,600 -828 Descending FlightAware ADS-B
Sun 05:59:40 PM 35.9580 140.3140 261° West 209 241 4,400 -900 Descending FlightAware ADS-B
Sun 05:59:47 PM 35.9540 140.3070 235° Southwest 204 235 4,300 -889 Descending FlightAware ADS-B
Sun 06:00:07 PM 35.9430 140.2890 233° Southwest 189 217 4,000 -857 Descending FlightAware ADS-B
Sun 06:00:15 PM 35.9370 140.2840 214° Southwest 187 215 3,900 -1,000 Descending FlightAware ADS-B
Sun 06:00:19 PM 35.9340 140.2820 208° Southwest 187 215 3,800 -1,286 Descending FlightAware ADS-B
Sun 06:00:29 PM 35.9260 140.2810 186° South 187 215 3,600 -1,400 Descending FlightAware ADS-B
Sun 06:00:49 PM 35.9080 140.2800 183° South 189 217 3,100 -1,125 Descending FlightAware ADS-B
Sun 06:01:17 PM 35.8890 140.2850 168° South 190 219 2,700 -882 Descending FlightAware ADS-B
Sun 06:01:23 PM 35.8840 140.2890 147° Southeast 189 217 2,600 -800 Descending FlightAware ADS-B
Sun 06:01:47 PM 35.8660 140.3020 150° Southeast 191 220 2,300 -857 Descending FlightAware ADS-B
Sun 06:02:05 PM 35.8520 140.3120 150° Southeast 187 215 2,000 -1,143 Descending FlightAware ADS-B
Sun 06:02:29 PM 35.8310 140.3270 150° Southeast 173 199 1,500 -1,091 Descending FlightAware ADS-B
Sun 06:02:49 PM 35.8190 140.3360 149° Southeast 148 170 1,200 -750 Descending FlightAware ADS-B
Sun 06:03:09 PM 35.8080 140.3440 149° Southeast 134 154 1,000 -682 Descending FlightAware ADS-B
Sun 06:03:33 PM 35.7950 140.3540 148° Southeast 134 154 700 -682 Descending FlightAware ADS-B
Sun 06:03:53 PM 35.7850 140.3610 150° Southeast 134 154 500 -316 Descending FlightAware ADS-B
Sun 06:04:30 PM 35.7660 140.3740 151° Southeast 134 154 400 -162 Descending FlightAware ADS-B
Sun 06:07:00 PM 35.7647 140.3864 253° West  Level Estimated
Sun 06:08:00 PM 35.7647 140.3864 253° West  Level Estimated
Sun 06:09:00 PM 35.7647 140.3864 253° West  Level Estimated
Sun 06:10:00 PM 35.7647 140.3864 253° West  Level Estimated
Sun 06:11:00 PM 35.7647 140.3864 253° West  Level Estimated
Sun 06:12:00 PM 35.7647 140.3864 253° West  Level Estimated
Sun 06:13:00 PM 35.7647 140.3864 253° West  Level Estimated
Sun 06:14:00 PM 35.7647 140.3864 253° West  Level Estimated
Sun 06:15:00 PM 35.7647 140.3864 253° West  Level Estimated
Sun 06:16:00 PM 35.7647 140.3864 253° West  Level Estimated
Sun 06:17:00 PM 35.7647 140.3864 253° West  Level Estimated
Sun 06:18:00 PM 35.7647 140.3864 253° West  Level Estimated

Login

Don't have an account? Register now (free) for customized features, flight alerts, and more!